Time;durP1;ratioP1;P1;durP2;ratioP2;P2;SDS_P1;SDS_P2;PMS_P1;PMS_P2;Temp;Humidity;BMP_temperature;BMP_pressure;BME280_temperature;BME280_humidity;BME280_pressure;Samples;Min_cycle;Max_cycle;Signal;HPM_P1;HPM_P2
2023/10/31 00:03:32;;;;;;;2.15;0.95;;;;;;;13.68;100.00;98345.16;10192372;28;20093;-57
2023/10/31 00:08:34;;;;;;;2.13;0.70;;;;;;;13.62;100.00;98353.94;10194645;28;20396;-59
2023/10/31 00:13:35;;;;;;;2.45;0.90;;;;;;;13.64;100.00;98365.25;10199938;28;20099;-57
2023/10/31 00:18:37;;;;;;;1.15;0.60;;;;;;;13.62;100.00;98378.00;10203244;28;20404;-57
2023/10/31 00:23:46;;;;;;;1.38;0.57;;;;;;;13.62;100.00;98378.00;10184644;28;20066;-56
2023/10/31 00:28:47;;;;;;;2.97;0.50;;;;;;;13.54;100.00;98372.75;10180608;28;20066;-57
2023/10/31 00:33:49;;;;;;;1.15;0.52;;;;;;;13.56;100.00;98398.28;10199726;28;20050;-58
2023/10/31 00:38:51;;;;;;;0.50;0.25;;;;;;;13.49;100.00;98402.72;10197465;28;20062;-58
2023/10/31 00:43:52;;;;;;;2.08;0.30;;;;;;;13.53;100.00;98419.22;10202242;28;20073;-58
2023/10/31 00:48:55;;;;;;;1.35;0.30;;;;;;;13.53;100.00;98422.72;10198925;28;20062;-58
2023/10/31 00:53:56;;;;;;;2.00;0.30;;;;;;;13.41;100.00;98411.66;10201815;28;20071;-58
2023/10/31 00:58:57;;;;;;;0.60;0.20;;;;;;;13.43;100.00;98425.66;10203594;28;20085;-57
2023/10/31 01:03:59;;;;;;;0.68;0.20;;;;;;;13.31;100.00;98427.13;10201244;28;20056;-57
2023/10/31 01:09:01;;;;;;;1.00;0.22;;;;;;;13.37;100.00;98437.09;10202779;28;20063;-58
2023/10/31 01:14:03;;;;;;;0.30;0.10;;;;;;;13.32;100.00;98439.47;10203161;28;20063;-58
2023/10/31 01:19:04;;;;;;;0.47;0.30;;;;;;;13.30;100.00;98438.84;10200416;28;20058;-57
2023/10/31 01:24:06;;;;;;;1.13;0.10;;;;;;;13.34;100.00;98429.47;10196665;28;20066;-57
2023/10/31 01:29:08;;;;;;;0.40;0.20;;;;;;;13.35;100.00;98428.44;10199849;28;20256;-57
2023/10/31 01:34:10;;;;;;;1.30;0.10;;;;;;;13.19;98.58;98425.94;10200205;28;20098;-57
2023/10/31 01:39:12;;;;;;;0.63;0.13;;;;;;;13.28;98.43;98435.50;10183403;28;20059;-57
2023/10/31 01:44:13;;;;;;;1.10;0.20;;;;;;;13.16;97.89;98445.03;10198461;28;20532;-57
2023/10/31 01:49:16;;;;;;;1.85;0.10;;;;;;;13.15;98.32;98448.69;10196984;28;20047;-57
2023/10/31 01:54:18;;;;;;;0.55;0.08;;;;;;;13.13;98.53;98450.72;10194601;28;20129;-57
2023/10/31 01:59:19;;;;;;;0.20;0.10;;;;;;;13.07;97.07;98437.09;10197565;28;20086;-57
2023/10/31 02:04:21;;;;;;;0.82;0.20;;;;;;;12.96;96.39;98440.22;10196161;28;20051;-58
2023/10/31 02:09:24;;;;;;;0.98;0.10;;;;;;;12.94;97.18;98455.63;10199799;28;20832;-58
2023/10/31 02:14:26;;;;;;;1.50;0.30;;;;;;;12.95;96.07;98464.44;10199457;28;20060;-58
2023/10/31 02:19:27;;;;;;;0.22;0.08;;;;;;;12.81;96.46;98442.88;10179628;28;20043;-57
2023/10/31 02:24:29;;;;;;;0.40;0.17;;;;;;;12.81;95.34;98458.91;10197110;28;20058;-56
2023/10/31 02:29:30;;;;;;;0.88;0.15;;;;;;;12.84;96.14;98463.06;10198418;28;20066;-57
2023/10/31 02:34:32;;;;;;;0.75;0.10;;;;;;;12.85;94.79;98475.38;10200116;28;20670;-57
2023/10/31 02:39:35;;;;;;;0.50;0.20;;;;;;;12.83;96.03;98477.41;10205448;28;20051;-57
2023/10/31 02:44:36;;;;;;;0.77;0.10;;;;;;;12.79;94.82;98468.09;10194206;28;20138;-57
2023/10/31 02:49:38;;;;;;;0.30;0.10;;;;;;;12.77;93.88;98488.81;10194724;28;20211;-57
2023/10/31 02:54:40;;;;;;;0.75;0.30;;;;;;;12.76;94.37;98503.16;10201204;28;20059;-57
2023/10/31 02:59:41;;;;;;;1.02;0.10;;;;;;;12.72;94.96;98514.19;10188419;28;20054;-57
2023/10/31 03:04:43;;;;;;;1.13;0.10;;;;;;;12.66;94.92;98493.56;10200541;28;20047;-58
2023/10/31 03:09:45;;;;;;;2.63;0.15;;;;;;;12.65;94.47;98502.56;10181244;28;20520;-58
2023/10/31 03:14:46;;;;;;;0.75;0.20;;;;;;;12.58;94.58;98523.00;10197718;28;20536;-57
2023/10/31 03:19:48;;;;;;;1.45;0.13;;;;;;;12.55;95.22;98539.38;10184748;28;20063;-58
2023/10/31 03:24:50;;;;;;;0.28;0.05;;;;;;;12.49;94.63;98535.59;10199533;28;20098;-58
2023/10/31 03:29:51;;;;;;;1.90;0.15;;;;;;;12.49;94.69;98534.72;10191016;28;20059;-57
2023/10/31 03:34:53;;;;;;;0.63;0.20;;;;;;;12.34;94.17;98537.34;10193746;28;20064;-57
2023/10/31 03:39:54;;;;;;;0.38;0.10;;;;;;;12.34;94.02;98550.66;10196034;28;20055;-57
2023/10/31 03:44:57;;;;;;;1.90;0.20;;;;;;;12.25;94.90;98559.72;10200304;28;20054;-56
2023/10/31 03:49:59;;;;;;;1.65;0.17;;;;;;;12.31;94.51;98597.22;10193284;28;20182;-57
2023/10/31 03:55:01;;;;;;;2.25;0.20;;;;;;;12.26;93.90;98588.91;10207816;28;20051;-57
2023/10/31 04:00:05;;;;;;;1.35;0.13;;;;;;;12.26;93.75;98593.41;10193301;28;20059;-57
2023/10/31 04:05:08;;;;;;;0.93;0.10;;;;;;;12.32;94.78;98590.88;10209365;28;20408;-57
2023/10/31 04:10:10;;;;;;;0.30;0.10;;;;;;;12.32;94.30;98593.53;10208583;28;20089;-57
2023/10/31 04:15:11;;;;;;;1.00;0.32;;;;;;;12.23;93.30;98580.44;10209835;28;20130;-57
2023/10/31 04:20:13;;;;;;;2.17;0.20;;;;;;;12.29;93.80;98593.88;10175945;28;20111;-57
2023/10/31 04:25:15;;;;;;;0.50;0.20;;;;;;;12.28;93.20;98602.06;10195691;28;20539;-57
2023/10/31 04:30:19;;;;;;;1.13;0.20;;;;;;;12.21;93.97;98599.28;10191023;28;20051;-58
2023/10/31 04:35:20;;;;;;;0.82;0.20;;;;;;;12.16;94.35;98598.94;10209445;28;20111;-57
2023/10/31 04:40:22;;;;;;;0.35;0.17;;;;;;;12.21;94.61;98607.28;10198839;28;20885;-57
2023/10/31 04:45:23;;;;;;;1.27;0.20;;;;;;;12.14;94.86;98614.31;10188793;28;20138;-57
2023/10/31 04:50:25;;;;;;;0.70;0.20;;;;;;;12.14;95.82;98611.66;10206573;28;20095;-57
2023/10/31 04:55:26;;;;;;;0.60;0.20;;;;;;;12.13;95.98;98613.50;10193072;28;20051;-58
2023/10/31 05:00:28;;;;;;;0.95;0.20;;;;;;;12.17;95.79;98627.31;10200139;28;20701;-58
2023/10/31 05:05:29;;;;;;;0.47;0.20;;;;;;;12.18;96.39;98618.31;10184075;28;20239;-57
2023/10/31 05:10:30;;;;;;;1.10;0.10;;;;;;;12.13;96.11;98605.50;10194733;28;20578;-60
2023/10/31 05:15:32;;;;;;;0.30;0.15;;;;;;;12.16;96.61;98620.28;10198457;28;20084;-57
2023/10/31 05:20:34;;;;;;;1.20;0.40;;;;;;;12.25;95.47;98635.28;10185765;28;20055;-57
2023/10/31 05:25:35;;;;;;;2.67;0.40;;;;;;;12.23;94.16;98626.59;10199731;28;20173;-57
2023/10/31 05:30:37;;;;;;;0.73;0.38;;;;;;;12.21;94.29;98628.63;10196975;28;20051;-56
2023/10/31 05:35:38;;;;;;;1.85;0.40;;;;;;;12.17;95.11;98627.31;10171869;28;20539;-57
2023/10/31 05:40:40;;;;;;;0.70;0.50;;;;;;;12.11;94.56;98622.66;10198699;28;20181;-57
2023/10/31 05:45:41;;;;;;;1.20;0.38;;;;;;;12.21;94.80;98644.63;10194802;28;20185;-58
2023/10/31 05:50:45;;;;;;;0.55;0.22;;;;;;;12.16;93.89;98657.63;10185546;28;20074;-57
2023/10/31 05:55:47;;;;;;;1.70;0.50;;;;;;;12.13;94.33;98658.84;10184666;28;20142;-57
2023/10/31 06:00:49;;;;;;;0.63;0.30;;;;;;;12.17;93.92;98660.16;10170510;28;20047;-58
2023/10/31 06:05:50;;;;;;;0.35;0.15;;;;;;;12.11;94.06;98670.66;10170055;28;20078;-58
2023/10/31 06:10:52;;;;;;;1.42;0.30;;;;;;;12.16;94.02;98678.97;10165971;28;20059;-57
2023/10/31 06:15:55;;;;;;;2.72;0.40;;;;;;;12.16;92.65;98689.66;10169927;28;20063;-57
2023/10/31 06:21:03;;;;;;;1.58;0.40;;;;;;;12.06;93.04;98678.38;10149420;28;20067;-58
2023/10/31 06:26:07;;;;;;;3.03;0.50;;;;;;;12.17;93.25;98708.19;10175910;28;21676;-58
2023/10/31 06:31:09;;;;;;;;;;;;;;;12.22;92.31;98714.81;10170798;28;20387;-57
2023/10/31 06:36:10;;;;;;;1.92;0.40;;;;;;;12.23;93.02;98722.63;10172806;28;20083;-57
2023/10/31 06:41:12;;;;;;;1.70;0.43;;;;;;;12.26;91.75;98726.81;10172551;28;20335;-57
2023/10/31 06:46:15;;;;;;;0.93;0.40;;;;;;;12.15;92.29;98742.16;10171513;28;20439;-56
2023/10/31 06:51:16;;;;;;;0.77;0.30;;;;;;;12.07;92.38;98744.88;10166563;28;20501;-58
2023/10/31 06:56:18;;;;;;;1.20;0.30;;;;;;;12.10;92.04;98759.69;10172308;28;20055;-57
2023/10/31 07:01:19;;;;;;;2.13;0.20;;;;;;;12.05;91.61;98757.53;10171865;28;20073;-57
2023/10/31 07:06:21;;;;;;;1.80;0.50;;;;;;;12.00;90.53;98760.69;10162127;28;20485;-57
2023/10/31 07:11:22;;;;;;;4.07;1.05;;;;;;;12.09;90.75;98774.84;10169836;28;20133;-58
2023/10/31 07:16:24;;;;;;;1.98;0.20;;;;;;;12.03;90.49;98780.88;10159179;28;20135;-59
2023/10/31 07:21:26;;;;;;;2.92;0.25;;;;;;;12.10;91.04;98786.34;10173641;28;20059;-58
2023/10/31 07:26:27;;;;;;;1.73;0.38;;;;;;;12.04;90.54;98790.56;10154299;28;20138;-58
2023/10/31 07:31:29;;;;;;;1.02;0.20;;;;;;;12.07;90.65;98798.22;10141015;28;20054;-57
2023/10/31 07:36:34;;;;;;;1.38;0.40;;;;;;;12.04;89.92;98803.88;10148744;28;20062;-58
2023/10/31 07:41:36;;;;;;;2.28;0.30;;;;;;;12.05;90.56;98807.38;10172128;28;20689;-58
2023/10/31 07:46:37;;;;;;;1.42;0.73;;;;;;;12.01;90.83;98814.91;10169284;28;20146;-57
2023/10/31 07:51:39;;;;;;;0.32;0.20;;;;;;;12.01;90.59;98814.91;10176455;28;20055;-60
2023/10/31 07:56:41;;;;;;;0.50;0.20;;;;;;;11.92;89.78;98811.34;10174202;28;20117;-58
2023/10/31 08:01:44;;;;;;;0.80;0.22;;;;;;;12.00;90.16;98834.56;10163671;28;20055;-56
2023/10/31 08:06:45;;;;;;;1.00;0.22;;;;;;;11.93;89.94;98834.38;10158704;28;20058;-58
2023/10/31 08:11:47;;;;;;;1.75;0.70;;;;;;;11.94;89.91;98845.88;10166905;28;20069;-57
2023/10/31 08:16:49;;;;;;;2.67;0.20;;;;;;;11.97;90.63;98853.56;10146193;28;20958;-58
2023/10/31 08:21:53;;;;;;;1.38;0.25;;;;;;;11.91;89.66;98851.53;10157625;28;20331;-57
2023/10/31 08:26:58;;;;;;;2.42;0.35;;;;;;;12.02;89.72;98848.53;10171949;28;20063;-55
2023/10/31 08:32:00;;;;;;;0.82;0.25;;;;;;;12.07;88.66;98850.69;10173098;28;20058;-57
2023/10/31 08:37:02;;;;;;;1.75;0.40;;;;;;;12.19;87.37;98865.38;10175261;28;20061;-58
2023/10/31 08:42:05;;;;;;;2.78;0.30;;;;;;;12.13;88.07;98866.88;10160586;28;20141;-56
2023/10/31 08:47:07;;;;;;;2.13;0.40;;;;;;;12.24;87.80;98878.22;10178619;28;20127;-57
2023/10/31 08:52:08;;;;;;;2.05;0.35;;;;;;;12.22;87.95;98885.53;10164286;28;20059;-58
2023/10/31 08:57:15;;;;;;;1.25;0.45;;;;;;;12.37;87.82;98897.22;10168423;28;20110;-56
2023/10/31 09:02:17;;;;;;;1.55;0.20;;;;;;;12.43;85.89;98888.53;10168187;28;20388;-57
2023/10/31 09:07:19;;;;;;;2.30;0.38;;;;;;;12.44;85.58;98894.69;10172414;28;20058;-56
2023/10/31 09:12:20;;;;;;;1.27;0.40;;;;;;;12.53;85.00;98909.69;10176719;28;20055;-59
2023/10/31 09:17:22;;;;;;;2.35;0.40;;;;;;;12.73;83.62;98904.84;10168773;28;20079;-58
2023/10/31 09:22:27;;;;;;;0.82;0.32;;;;;;;12.91;83.72;98918.81;10177545;28;20623;-58
2023/10/31 09:27:28;;;;;;;1.98;0.38;;;;;;;13.34;81.08;98929.19;10173979;28;20066;-57
2023/10/31 09:32:30;;;;;;;4.18;0.95;;;;;;;13.53;80.24;98929.78;10158009;28;20696;-57
2023/10/31 09:37:32;;;;;;;0.85;0.20;;;;;;;14.10;79.31;98936.63;10162400;28;20597;-57
2023/10/31 09:42:34;;;;;;;2.83;0.35;;;;;;;14.11;78.44;98940.94;10167390;28;21494;-56
2023/10/31 09:47:36;;;;;;;2.60;0.75;;;;;;;13.87;78.42;98949.97;10169723;28;20048;-58
2023/10/31 09:52:38;;;;;;;1.50;0.30;;;;;;;13.93;78.49;98938.56;10174762;28;20109;-56
2023/10/31 09:57:40;;;;;;;1.23;0.45;;;;;;;13.84;77.70;98944.97;10170841;28;20067;-57
2023/10/31 10:02:42;;;;;;;3.90;0.77;;;;;;;13.87;78.03;98949.97;10175660;28;20074;-54
2023/10/31 10:07:45;;;;;;;1.27;0.50;;;;;;;13.73;76.47;98928.31;10169145;28;20063;-57
2023/10/31 10:12:47;;;;;;;1.00;0.30;;;;;;;13.94;77.91;98953.63;10167866;28;20054;-56
2023/10/31 10:17:51;;;;;;;1.55;0.43;;;;;;;14.20;76.46;98944.41;10176651;28;20150;-57
2023/10/31 10:22:53;;;;;;;1.65;0.20;;;;;;;14.32;73.18;98945.63;10175123;28;20078;-57
2023/10/31 10:27:54;;;;;;;0.90;0.30;;;;;;;14.35;74.50;98925.72;10163487;28;20078;-56
2023/10/31 10:32:56;;;;;;;0.98;0.28;;;;;;;14.82;73.21;98952.25;10162711;28;20863;-56
2023/10/31 10:37:58;;;;;;;1.63;0.30;;;;;;;15.19;69.93;98955.91;10136831;28;20062;-58
2023/10/31 10:43:08;;;;;;;2.33;0.30;;;;;;;15.80;69.92;98944.09;10164953;28;20051;-57
2023/10/31 10:48:15;;;;;;;1.65;0.30;;;;;;;16.00;66.64;98952.38;10174363;28;20047;-56
2023/10/31 10:53:24;;;;;;;1.52;0.20;;;;;;;16.22;67.85;98941.63;10178536;28;20225;-56
2023/10/31 10:58:50;;;;;;;2.10;0.52;;;;;;;16.31;66.16;98945.03;10166054;28;20182;-57
2023/10/31 11:03:53;;;;;;;2.45;0.25;;;;;;;16.82;65.79;98942.13;10166610;28;20067;-56
2023/10/31 11:08:55;;;;;;;0.73;0.20;;;;;;;17.25;63.46;98944.69;10171591;28;20055;-57
2023/10/31 11:13:59;;;;;;;1.95;0.20;;;;;;;17.59;61.71;98940.28;10166414;28;20792;-57
2023/10/31 11:19:00;;;;;;;0.83;0.33;;;;;;;17.92;61.52;98899.19;10167767;28;20157;-58
2023/10/31 11:24:03;;;;;;;2.35;0.35;;;;;;;18.15;61.18;98928.47;10168132;28;20300;-57
2023/10/31 11:29:06;;;;;;;2.72;0.30;;;;;;;17.68;58.91;98943.63;10160227;28;20071;-57
2023/10/31 11:34:07;;;;;;;1.35;0.25;;;;;;;17.29;60.67;98942.41;10167210;28;20602;-57
2023/10/31 11:39:14;;;;;;;1.48;0.30;;;;;;;17.15;61.67;98954.97;10171522;28;20548;-58
2023/10/31 11:44:17;;;;;;;2.00;0.52;;;;;;;17.32;60.13;98955.47;10173423;28;20055;-57
2023/10/31 11:49:46;;;;;;;1.58;0.22;;;;;;;17.91;57.80;98955.94;10171230;28;20085;-58
2023/10/31 11:54:48;;;;;;;3.92;0.40;;;;;;;17.68;58.62;98954.38;10168132;28;20522;-58
2023/10/31 11:59:50;;;;;;;1.02;0.40;;;;;;;17.34;59.97;98952.56;10174460;28;20059;-56
2023/10/31 12:05:06;;;;;;;2.10;0.30;;;;;;;17.84;56.75;98964.78;10173204;28;20059;-57
2023/10/31 12:10:08;;;;;;;1.77;0.30;;;;;;;18.62;55.99;98976.97;10181081;28;20065;-55
2023/10/31 12:15:10;;;;;;;1.23;0.38;;;;;;;18.93;53.75;98967.47;10178820;28;20495;-58
2023/10/31 12:20:12;;;;;;;1.13;0.38;;;;;;;19.56;51.90;98988.50;10178734;28;20058;-55
2023/10/31 12:25:14;;;;;;;2.67;0.30;;;;;;;19.77;51.64;98984.69;10180829;28;21108;-57
2023/10/31 12:30:18;;;;;;;1.98;0.65;;;;;;;19.21;53.43;98996.03;10174164;28;20059;-57
2023/10/31 12:35:22;;;;;;;0.60;0.35;;;;;;;18.38;53.35;99008.88;10188582;28;20053;-56
2023/10/31 12:40:26;;;;;;;3.58;0.60;;;;;;;17.45;55.62;98997.75;10182949;28;20066;-57
2023/10/31 12:45:27;;;;;;;3.22;0.45;;;;;;;17.25;58.27;99003.84;10178143;28;20044;-57
2023/10/31 12:50:33;;;;;;;2.13;0.40;;;;;;;17.10;58.84;99016.56;10162596;28;20121;-57
2023/10/31 12:55:41;;;;;;;0.90;0.20;;;;;;;16.92;59.25;99007.13;10182070;28;20593;-59
2023/10/31 13:00:43;;;;;;;1.00;0.40;;;;;;;17.36;58.28;99004.34;10178065;28;20058;-54
2023/10/31 13:05:46;;;;;;;1.63;0.40;;;;;;;17.40;55.82;99010.94;10163178;28;20051;-58
2023/10/31 13:10:47;;;;;;;3.28;0.75;;;;;;;18.15;55.72;99021.84;10176518;28;20050;-56
2023/10/31 13:15:49;;;;;;;3.47;0.63;;;;;;;17.98;55.59;99027.59;10171656;28;20669;-56
2023/10/31 13:20:53;;;;;;;1.63;0.57;;;;;;;17.45;57.91;99030.03;10172964;28;20145;-56
2023/10/31 13:25:55;;;;;;;4.03;0.95;;;;;;;16.92;57.98;99023.25;10162259;28;20051;-57
2023/10/31 13:30:57;;;;;;;4.70;0.80;;;;;;;16.57;58.86;99015.09;10173503;28;20059;-59
2023/10/31 13:35:59;;;;;;;3.35;0.63;;;;;;;16.35;60.59;99010.72;10176730;28;20070;-58
2023/10/31 13:41:01;;;;;;;2.13;0.55;;;;;;;16.34;60.98;99025.19;10159212;28;20055;-57
2023/10/31 13:46:03;;;;;;;3.30;0.68;;;;;;;16.37;61.09;99027.50;10174036;28;20626;-57
2023/10/31 13:51:05;;;;;;;2.25;0.40;;;;;;;18.05;55.22;99026.81;10179851;28;20059;-57
2023/10/31 13:56:07;;;;;;;2.10;0.47;;;;;;;17.16;57.47;99013.09;10179684;28;20524;-57
2023/10/31 14:01:09;;;;;;;2.55;0.73;;;;;;;16.89;58.34;99022.81;10167252;28;20059;-57
2023/10/31 14:06:12;;;;;;;3.97;1.13;;;;;;;20.67;48.82;99028.88;10179932;28;20886;-58
2023/10/31 14:11:14;;;;;;;1.33;0.30;;;;;;;22.22;43.58;99028.97;10181808;28;21439;-59
2023/10/31 14:16:16;;;;;;;2.10;0.30;;;;;;;21.64;44.09;99033.84;10176238;28;20051;-59
2023/10/31 14:21:18;;;;;;;1.50;0.25;;;;;;;22.52;43.78;99041.69;10170627;28;20712;-59
2023/10/31 14:26:20;;;;;;;2.20;0.73;;;;;;;23.13;40.28;99042.44;10175238;28;20539;-58
2023/10/31 14:31:23;;;;;;;1.33;0.40;;;;;;;23.26;39.12;99039.47;10178894;28;24595;-56
2023/10/31 14:36:25;;;;;;;3.07;0.40;;;;;;;22.17;41.87;99045.94;10181366;28;20452;-59
2023/10/31 14:41:27;;;;;;;1.10;0.38;;;;;;;21.59;42.75;99044.53;10180278;28;20059;-58
2023/10/31 14:46:29;;;;;;;2.50;0.55;;;;;;;20.51;45.33;99053.69;10173627;28;20062;-58
2023/10/31 14:51:32;;;;;;;3.08;0.50;;;;;;;19.22;46.88;99040.88;10165249;28;20063;-58
2023/10/31 14:56:35;;;;;;;2.90;0.45;;;;;;;18.41;48.55;99068.78;10170656;28;20146;-57
2023/10/31 15:01:37;;;;;;;3.95;0.60;;;;;;;17.67;50.44;99076.53;10165820;28;20178;-57
2023/10/31 15:06:39;;;;;;;2.40;0.43;;;;;;;17.11;50.93;99061.25;10177065;28;21738;-59
2023/10/31 15:11:41;;;;;;;1.77;0.50;;;;;;;16.85;53.30;99083.34;10176825;28;20055;-59
2023/10/31 15:16:42;;;;;;;2.50;0.77;;;;;;;16.66;53.64;99082.09;10170753;28;20746;-58
2023/10/31 15:21:44;;;;;;;1.83;0.60;;;;;;;16.52;54.13;99081.97;10172388;28;20318;-59
2023/10/31 15:26:46;;;;;;;2.60;0.85;;;;;;;16.30;53.76;99085.66;10186643;28;20055;-58
2023/10/31 15:31:53;;;;;;;4.15;0.82;;;;;;;16.02;55.46;99076.47;10174092;28;20061;-56
2023/10/31 15:36:55;;;;;;;3.45;0.90;;;;;;;16.03;56.03;99090.69;10177494;28;20811;-57
2023/10/31 15:41:57;;;;;;;3.30;0.70;;;;;;;16.02;56.10;99105.16;10165294;28;20062;-57
2023/10/31 15:46:59;;;;;;;4.97;0.75;;;;;;;15.89;56.46;99112.00;10160081;28;20186;-57
2023/10/31 15:52:01;;;;;;;3.10;1.40;;;;;;;15.85;57.87;99125.97;10175073;28;20058;-57
2023/10/31 15:57:03;;;;;;;2.65;0.70;;;;;;;15.77;57.58;99140.28;10149115;28;20051;-55
2023/10/31 16:02:05;;;;;;;2.90;0.70;;;;;;;15.60;57.78;99138.78;10169536;28;20059;-61
2023/10/31 16:07:09;;;;;;;4.28;1.20;;;;;;;15.55;58.35;99136.66;10155034;28;20054;-58
2023/10/31 16:12:11;;;;;;;3.25;1.05;;;;;;;15.52;59.12;99153.09;10180134;28;20070;-61
2023/10/31 16:17:12;;;;;;;3.13;1.45;;;;;;;15.48;59.90;99162.56;10171487;28;20059;-58
2023/10/31 16:22:14;;;;;;;2.95;0.90;;;;;;;15.37;60.98;99171.84;10166070;28;20055;-58
2023/10/31 16:27:15;;;;;;;2.78;0.80;;;;;;;15.28;60.23;99184.50;10170275;28;20050;-63
2023/10/31 16:32:17;;;;;;;2.80;0.82;;;;;;;15.16;61.80;99186.78;10159382;28;20050;-58
2023/10/31 16:37:19;;;;;;;5.32;0.80;;;;;;;15.25;62.37;99192.06;10173736;28;20488;-59
2023/10/31 16:42:20;;;;;;;2.53;1.10;;;;;;;15.20;63.16;99185.38;10164489;28;20055;-59
2023/10/31 16:47:22;;;;;;;3.65;1.02;;;;;;;15.20;63.45;99201.47;10173141;28;20075;-59
2023/10/31 16:52:24;;;;;;;2.50;0.77;;;;;;;15.11;63.50;99199.03;10175391;28;20055;-58
2023/10/31 16:57:25;;;;;;;3.85;1.05;;;;;;;15.08;64.17;99213.63;10156163;28;20059;-60
2023/10/31 17:02:27;;;;;;;1.80;1.00;;;;;;;15.01;64.79;99221.56;10178789;28;20059;-58
2023/10/31 17:07:29;;;;;;;4.85;1.25;;;;;;;15.01;64.98;99243.00;10176963;28;20047;-59
2023/10/31 17:12:30;;;;;;;4.07;1.20;;;;;;;14.93;65.30;99237.66;10176929;28;20070;-58
2023/10/31 17:17:32;;;;;;;4.30;1.88;;;;;;;14.89;65.92;99239.03;10175930;28;20220;-59
2023/10/31 17:22:38;;;;;;;5.82;1.83;;;;;;;14.97;66.29;99241.66;10177991;28;20126;-59
2023/10/31 17:27:39;;;;;;;2.83;1.35;;;;;;;14.96;66.58;99249.88;10149569;28;20066;-58
2023/10/31 17:32:41;;;;;;;2.28;1.15;;;;;;;14.89;67.09;99263.13;10175423;28;20142;-59
2023/10/31 17:37:42;;;;;;;3.72;1.20;;;;;;;14.89;67.98;99259.63;10164732;28;20056;-59
2023/10/31 17:42:44;;;;;;;4.25;1.20;;;;;;;14.83;68.22;99271.88;10151894;28;20229;-58
2023/10/31 17:47:45;;;;;;;2.95;1.00;;;;;;;14.78;68.72;99276.94;10173667;28;20266;-59
2023/10/31 17:52:48;;;;;;;2.83;0.77;;;;;;;14.67;69.30;99279.00;10175304;28;20146;-58
2023/10/31 17:57:49;;;;;;;4.35;1.13;;;;;;;14.68;69.66;99285.16;10162851;28;20137;-59
2023/10/31 18:02:51;;;;;;;4.53;1.02;;;;;;;14.62;70.72;99291.22;10175829;28;20051;-59
2023/10/31 18:07:53;;;;;;;3.08;0.98;;;;;;;14.50;71.42;99298.75;10176189;28;20609;-59
2023/10/31 18:12:55;;;;;;;3.03;1.27;;;;;;;14.50;72.28;99304.09;10182433;28;20066;-59
2023/10/31 18:17:57;;;;;;;2.30;1.20;;;;;;;14.51;72.55;99308.47;10172592;28;20535;-59
2023/10/31 18:22:58;;;;;;;3.00;1.15;;;;;;;14.37;73.28;99310.03;10173139;28;20467;-58
2023/10/31 18:28:01;;;;;;;3.17;1.02;;;;;;;14.39;75.08;99312.53;10144996;28;20062;-60
2023/10/31 18:33:03;;;;;;;3.65;1.02;;;;;;;14.31;75.34;99316.06;10152263;28;20059;-59
2023/10/31 18:38:05;;;;;;;2.03;1.50;;;;;;;14.31;76.34;99314.22;10166360;28;21682;-60
2023/10/31 18:43:08;;;;;;;2.00;1.42;;;;;;;14.40;76.66;99331.09;10170970;28;20051;-60
2023/10/31 18:48:11;;;;;;;5.22;2.22;;;;;;;14.19;78.58;99301.38;10175489;28;20058;-59
2023/10/31 18:53:12;;;;;;;1.95;1.00;;;;;;;14.36;80.42;99350.34;10174926;28;20074;-59
2023/10/31 18:58:14;;;;;;;2.45;1.55;;;;;;;14.28;80.81;99330.63;10166294;28;20197;-59
2023/10/31 19:03:15;;;;;;;3.15;1.13;;;;;;;14.33;81.00;99351.53;10175392;28;20050;-59
2023/10/31 19:08:17;;;;;;;3.13;1.67;;;;;;;14.26;81.51;99343.34;10173643;28;20582;-60
2023/10/31 19:13:18;;;;;;;5.65;1.75;;;;;;;14.21;83.23;99348.34;10173325;28;20059;-49
2023/10/31 19:18:22;;;;;;;3.78;2.13;;;;;;;14.26;83.29;99339.81;10183482;28;20075;-50
2023/10/31 19:23:23;;;;;;;3.37;1.30;;;;;;;14.20;82.68;99346.69;10187125;28;20126;-50
2023/10/31 19:28:24;;;;;;;3.53;2.13;;;;;;;14.17;82.45;99351.53;10180661;28;20056;-51
2023/10/31 19:33:26;;;;;;;4.18;1.55;;;;;;;14.20;83.38;99359.22;10177342;28;20085;-51
2023/10/31 19:38:29;;;;;;;2.15;1.52;;;;;;;14.18;83.31;99369.28;10180972;28;20058;-51
2023/10/31 19:43:33;;;;;;;3.47;1.45;;;;;;;14.19;83.30;99377.13;10176231;28;20268;-50
2023/10/31 19:48:35;;;;;;;2.70;1.17;;;;;;;14.01;83.10;99363.09;10177221;28;20158;-51
2023/10/31 19:53:37;;;;;;;3.30;1.17;;;;;;;14.06;84.07;99371.44;10174779;28;20075;-51
2023/10/31 19:58:38;;;;;;;4.00;1.55;;;;;;;14.03;83.98;99377.97;10178928;28;20766;-51
2023/10/31 20:03:40;;;;;;;4.35;1.90;;;;;;;14.08;84.20;99372.97;10173457;28;20101;-58
2023/10/31 20:08:42;;;;;;;2.72;1.20;;;;;;;14.00;83.88;99394.34;10172719;28;20055;-59
2023/10/31 20:13:44;;;;;;;2.58;1.20;;;;;;;13.93;84.29;99399.56;10168018;28;20055;-60
2023/10/31 20:18:45;;;;;;;2.05;0.90;;;;;;;13.96;85.13;99395.69;10152517;28;20477;-59
2023/10/31 20:23:47;;;;;;;3.63;1.05;;;;;;;13.86;85.79;99403.88;10155236;28;20424;-58
2023/10/31 20:28:48;;;;;;;2.95;1.15;;;;;;;13.87;85.65;99404.72;10174907;28;20059;-58
2023/10/31 20:33:50;;;;;;;3.83;1.33;;;;;;;13.86;85.99;99400.38;10171247;28;20199;-59
2023/10/31 20:38:52;;;;;;;3.38;0.88;;;;;;;13.84;85.80;99399.69;10173889;28;20062;-59
2023/10/31 20:43:55;;;;;;;1.42;0.93;;;;;;;13.77;86.32;99403.03;10179871;28;20054;-59
2023/10/31 20:48:56;;;;;;;4.03;1.40;;;;;;;13.74;86.30;99391.84;10164356;28;20583;-59
2023/10/31 20:53:58;;;;;;;1.48;0.98;;;;;;;13.70;86.88;99398.50;10179270;28;20934;-59
2023/10/31 20:59:00;;;;;;;3.53;1.15;;;;;;;13.62;86.44;99402.00;10178103;28;20052;-58
2023/10/31 21:04:02;;;;;;;3.92;1.05;;;;;;;13.58;86.49;99392.63;10178829;28;20094;-59
2023/10/31 21:09:05;;;;;;;3.20;1.27;;;;;;;13.49;86.98;99390.94;10188321;28;20067;-59
2023/10/31 21:14:06;;;;;;;3.58;1.35;;;;;;;13.56;86.87;99397.31;10199589;28;20051;-60
2023/10/31 21:19:08;;;;;;;3.10;1.55;;;;;;;13.45;86.83;99385.09;10188590;28;20717;-59
2023/10/31 21:24:09;;;;;;;2.03;1.00;;;;;;;13.40;86.76;99380.22;10202847;28;20062;-59
2023/10/31 21:29:13;;;;;;;2.95;1.23;;;;;;;13.51;86.80;99394.28;10198143;28;20163;-59
2023/10/31 21:34:15;;;;;;;4.97;1.30;;;;;;;13.47;87.07;99390.28;10186471;28;20067;-59
2023/10/31 21:39:19;;;;;;;1.95;1.15;;;;;;;13.48;87.06;99399.97;10176375;28;20106;-59
2023/10/31 21:44:25;;;;;;;2.63;1.33;;;;;;;13.47;87.63;99395.63;10180286;28;20085;-58
2023/10/31 21:49:27;;;;;;;1.55;1.10;;;;;;;13.38;87.82;99389.41;10199061;28;20058;-58
2023/10/31 21:54:31;;;;;;;2.55;1.25;;;;;;;13.28;89.16;99394.84;10199412;28;20059;-58
2023/10/31 21:59:32;;;;;;;3.20;1.25;;;;;;;13.30;89.40;99384.88;10198601;28;20228;-59
2023/10/31 22:04:34;;;;;;;1.90;1.00;;;;;;;13.33;89.07;99386.34;10200657;28;20069;-59
2023/10/31 22:09:36;;;;;;;5.03;1.65;;;;;;;13.34;88.69;99394.25;10177054;28;20058;-60
2023/10/31 22:14:37;;;;;;;1.52;0.63;;;;;;;13.32;88.86;99390.88;10173772;28;20682;-58
2023/10/31 22:19:39;;;;;;;1.40;0.80;;;;;;;13.30;88.41;99395.56;10192097;28;20081;-59
2023/10/31 22:24:40;;;;;;;3.00;1.20;;;;;;;13.25;88.65;99397.84;10196304;28;20130;-58
2023/10/31 22:29:42;;;;;;;4.20;0.95;;;;;;;13.15;88.74;99384.66;10180636;28;20094;-59
2023/10/31 22:34:43;;;;;;;4.82;1.10;;;;;;;13.21;88.67;99388.47;10196455;28;20223;-60
2023/10/31 22:39:45;;;;;;;4.15;1.08;;;;;;;13.31;88.34;99399.06;10180162;28;20051;-59
2023/10/31 22:44:47;;;;;;;3.28;1.25;;;;;;;13.26;88.38;99391.53;10197598;28;20051;-59
2023/10/31 22:49:48;;;;;;;2.22;0.82;;;;;;;13.28;87.78;99384.16;10193551;28;20090;-59
2023/10/31 22:54:50;;;;;;;3.05;0.73;;;;;;;13.31;87.94;99404.41;10199661;28;20063;-59
2023/10/31 22:59:52;;;;;;;3.75;0.90;;;;;;;13.26;87.87;99391.53;10198105;28;20059;-59
2023/10/31 23:04:55;;;;;;;2.50;1.00;;;;;;;13.32;88.01;99403.41;10196274;28;20055;-59
2023/10/31 23:09:57;;;;;;;2.42;1.08;;;;;;;13.26;87.94;99402.22;10198054;28;20059;-58
2023/10/31 23:14:59;;;;;;;1.77;1.00;;;;;;;13.11;88.09;99380.63;10210089;28;20047;-60
2023/10/31 23:20:04;;;;;;;3.03;0.90;;;;;;;13.15;88.43;99391.81;10198061;28;20043;-58
2023/10/31 23:25:05;;;;;;;2.90;1.02;;;;;;;13.13;88.72;99393.81;10197713;28;20047;-59